Time;durP1;ratioP1;P1;durP2;ratioP2;P2;SDS_P1;SDS_P2;PMS_P1;PMS_P2;Temp;Humidity;BMP_temperature;BMP_pressure;BME280_temperature;BME280_humidity;BME280_pressure;Samples;Min_cycle;Max_cycle;Signal;HPM_P1;HPM_P2
2023/03/04 00:02:08;;;;;;;;;;;3.20;99.90;;;;;;6240861;23;20294;-83
2023/03/04 00:04:34;;;;;;;;;;;4.20;99.90;;;;;;6213397;23;19915;-83
2023/03/04 00:07:00;;;;;;;;;;;3.20;99.90;;;;;;6239887;23;19899;-85
2023/03/04 00:09:25;;;;;;;;;;;3.20;99.90;;;;;;6240976;23;19899;-85
2023/03/04 00:11:51;;;;;;;;;;;3.10;99.90;;;;;;6242037;23;19903;-85
2023/03/04 00:14:16;;;;;;;;;;;3.20;99.90;;;;;;6241253;23;20307;-86
2023/03/04 00:16:42;;;;;;;;;;;4.10;99.90;;;;;;6242702;23;19970;-85
2023/03/04 00:19:09;;;;;;;;;;;3.20;99.90;;;;;;6242635;23;20348;-85
2023/03/04 00:21:34;;;;;;;;;;;3.10;99.90;;;;;;6241996;23;19903;-85
2023/03/04 00:23:59;;;;;;;;;;;3.10;99.90;;;;;;6242648;23;19915;-85
2023/03/04 00:26:25;;;;;;;;;;;3.10;99.90;;;;;;6216233;23;20371;-85
2023/03/04 00:28:50;;;;;;;;;;;3.20;99.90;;;;;;6243442;23;20316;-84
2023/03/04 00:31:16;;;;;;;;;;;3.00;99.90;;;;;;6242435;23;19904;-85
2023/03/04 00:33:43;;;;;;;;;;;3.00;99.90;;;;;;6242358;23;20300;-85
2023/03/04 00:36:09;;;;;;;;;;;2.90;99.90;;;;;;6242462;23;20351;-85
2023/03/04 00:38:34;;;;;;;;;;;2.90;99.90;;;;;;6242347;23;19903;-86
2023/03/04 00:41:00;;;;;;;;;;;2.90;99.90;;;;;;6215183;23;19899;-86
2023/03/04 00:43:25;;;;;;;;;;;4.30;99.90;;;;;;6243446;23;19942;-86
2023/03/04 00:45:51;;;;;;;;;;;2.90;99.90;;;;;;6216192;23;20222;-86
2023/03/04 00:48:17;;;;;;;;;;;2.90;99.90;;;;;;6242168;23;19947;-85
2023/03/04 00:50:42;;;;;;;;;;;2.90;99.90;;;;;;6242245;23;19900;-85
2023/03/04 00:53:09;;;;;;;;;;;2.90;99.90;;;;;;6242519;23;19907;-85
2023/03/04 00:55:34;;;;;;;;;;;2.80;99.90;;;;;;6242396;23;19903;-85
2023/03/04 00:58:00;;;;;;;;;;;3.60;99.90;;;;;;6242025;23;19914;-86
2023/03/04 01:00:25;;;;;;;;;;;2.70;99.90;;;;;;6216533;23;20000;-85
2023/03/04 01:02:51;;;;;;;;;;;2.70;99.90;;;;;;6242278;23;19982;-85
2023/03/04 01:05:16;;;;;;;;;;;2.70;99.90;;;;;;6241920;23;19999;-86
2023/03/04 01:07:42;;;;;;;;;;;2.80;99.90;;;;;;6242341;23;19899;-86
2023/03/04 01:10:08;;;;;;;;;;;2.80;99.90;;;;;;6242193;23;19899;-85
2023/03/04 01:12:33;;;;;;;;;;;2.80;99.90;;;;;;6215425;23;19900;-85
2023/03/04 01:14:59;;;;;;;;;;;2.70;99.90;;;;;;6242024;23;20213;-85
2023/03/04 01:17:24;;;;;;;;;;;3.90;99.90;;;;;;6242345;23;19903;-85
2023/03/04 01:19:50;;;;;;;;;;;2.50;99.90;;;;;;6241868;23;19914;-85
2023/03/04 01:22:17;;;;;;;;;;;2.70;99.90;;;;;;6242048;23;20336;-85
2023/03/04 01:24:43;;;;;;;;;;;2.70;99.90;;;;;;6241842;23;20290;-85
2023/03/04 01:27:09;;;;;;;;;;;2.60;99.90;;;;;;6242001;23;19945;-85
2023/03/04 01:29:34;;;;;;;;;;;2.60;99.90;;;;;;6242036;23;20328;-85
2023/03/04 01:32:00;;;;;;;;;;;2.60;99.90;;;;;;6241532;23;19931;-86
2023/03/04 01:34:25;;;;;;;;;;;2.50;99.90;;;;;;6242851;23;19900;-85
2023/03/04 01:36:50;;;;;;;;;;;2.50;99.90;;;;;;6242081;23;20342;-85
2023/03/04 01:39:16;;;;;;;;;;;2.50;99.90;;;;;;6241512;23;19900;-85
2023/03/04 01:41:42;;;;;;;;;;;2.40;99.90;;;;;;6241858;23;19900;-85
2023/03/04 01:44:08;;;;;;;;;;;2.30;99.90;;;;;;6214715;23;20351;-85
2023/03/04 01:46:34;;;;;;;;;;;2.30;99.90;;;;;;6241705;23;20012;-86
2023/03/04 01:49:00;;;;;;;;;;;3.50;99.90;;;;;;6216008;23;20321;-85
2023/03/04 01:51:25;;;;;;;;;;;2.50;99.90;;;;;;6215638;23;19899;-87
2023/03/04 01:53:53;;;;;;;;;;;2.50;99.90;;;;;;6241709;23;19927;-85
2023/03/04 01:56:22;;;;;;;;;;;3.50;99.90;;;;;;6241687;23;19953;-85
2023/03/04 01:59:06;;;;;;;;;;;2.50;99.90;;;;;;6214701;23;19900;-84
2023/03/04 02:01:32;;;;;;;;;;;2.60;99.90;;;;;;6214543;23;19900;-85
2023/03/04 02:03:58;;;;;;;;;;;3.40;99.90;;;;;;6242685;23;19915;-84
2023/03/04 02:06:23;;;;;;;;;;;2.60;99.90;;;;;;6241782;23;19922;-84
2023/03/04 02:08:49;;;;;;;;;;;2.60;99.90;;;;;;6214736;23;20348;-84
2023/03/04 02:11:14;;;;;;;;;;;2.70;99.90;;;;;;6240947;23;19910;-84
2023/03/04 02:13:40;;;;;;;;;;;2.70;99.90;;;;;;6241475;23;20368;-84
2023/03/04 02:16:05;;;;;;;;;;;2.50;99.90;;;;;;6241257;23;20236;-84
2023/03/04 02:18:31;;;;;;;;;;;2.70;99.90;;;;;;6241585;23;19943;-84
2023/03/04 02:21:03;;;;;;;;;;;2.70;99.90;;;;;;6242694;23;19934;-84
2023/03/04 02:23:34;;;;;;;;;;;2.70;99.90;;;;;;6242533;23;19899;-84
2023/03/04 02:26:12;;;;;;;;;;;2.70;99.90;;;;;;6242567;23;19906;-85
2023/03/04 02:28:37;;;;;;;;;;;2.70;99.90;;;;;;6240721;23;19985;-85
2023/03/04 02:31:03;;;;;;;;;;;2.70;99.90;;;;;;6241162;23;19899;-84
2023/03/04 02:33:28;;;;;;;;;;;2.70;99.90;;;;;;6242415;23;19906;-85
2023/03/04 02:35:54;;;;;;;;;;;2.60;99.90;;;;;;6241359;23;19903;-86
2023/03/04 02:38:20;;;;;;;;;;;2.70;99.90;;;;;;6241115;23;20279;-85
2023/03/04 02:40:47;;;;;;;;;;;2.50;99.90;;;;;;6241245;23;19904;-84
2023/03/04 02:43:13;;;;;;;;;;;2.50;99.90;;;;;;6241023;23;19982;-84
2023/03/04 02:45:40;;;;;;;;;;;2.40;99.90;;;;;;6240866;23;19912;-85
2023/03/04 02:48:06;;;;;;;;;;;2.30;99.90;;;;;;6214412;23;19899;-84
2023/03/04 02:50:33;;;;;;;;;;;2.20;99.90;;;;;;6242268;23;19907;-85
2023/03/04 02:52:59;;;;;;;;;;;2.30;99.90;;;;;;6242060;23;19899;-86
2023/03/04 02:55:24;;;;;;;;;;;2.30;99.90;;;;;;6240884;23;19988;-85
2023/03/04 02:57:50;;;;;;;;;;;2.30;99.90;;;;;;6240965;23;19900;-83
2023/03/04 03:00:16;;;;;;;;;;;2.10;99.90;;;;;;6241365;23;20283;-86
2023/03/04 03:02:41;;;;;;;;;;;2.20;99.90;;;;;;6241369;23;19939;-86
2023/03/04 03:05:07;;;;;;;;;;;2.10;99.90;;;;;;6240309;23;20221;-86
2023/03/04 03:07:33;;;;;;;;;;;2.00;99.90;;;;;;6215308;23;20324;-85
2023/03/04 03:09:59;;;;;;;;;;;2.00;99.90;;;;;;6215283;23;19900;-86
2023/03/04 03:12:25;;;;;;;;;;;2.10;99.90;;;;;;6241058;23;19933;-85
2023/03/04 03:14:50;;;;;;;;;;;3.40;99.90;;;;;;6241197;23;19906;-89
2023/03/04 03:17:16;;;;;;;;;;;2.00;99.90;;;;;;6241147;23;19900;-85
2023/03/04 03:19:41;;;;;;;;;;;1.90;99.90;;;;;;6240881;23;19946;-85
2023/03/04 03:22:07;;;;;;;;;;;1.90;99.90;;;;;;6240686;23;19900;-87
2023/03/04 03:24:32;;;;;;;;;;;1.70;99.90;;;;;;6214662;23;19908;-87
2023/03/04 03:26:58;;;;;;;;;;;1.50;99.90;;;;;;6240750;23;19900;-86
2023/03/04 03:29:23;;;;;;;;;;;1.90;99.90;;;;;;6241246;23;19899;-85
2023/03/04 03:31:49;;;;;;;;;;;2.00;99.90;;;;;;6240853;23;19989;-86
2023/03/04 03:34:14;;;;;;;;;;;1.90;99.90;;;;;;6240816;23;19910;-85
2023/03/04 03:36:40;;;;;;;;;;;1.80;99.90;;;;;;6241165;23;19993;-85
2023/03/04 03:39:05;;;;;;;;;;;1.90;99.90;;;;;;6241496;23;20321;-85
2023/03/04 03:41:31;;;;;;;;;;;2.10;99.90;;;;;;6214043;23;19949;-85
2023/03/04 03:43:56;;;;;;;;;;;1.90;99.90;;;;;;6213680;23;20251;-85
2023/03/04 03:46:22;;;;;;;;;;;1.90;99.90;;;;;;6240948;23;19939;-85
2023/03/04 03:48:47;;;;;;;;;;;1.90;99.90;;;;;;6241319;23;19899;-85
2023/03/04 03:51:12;;;;;;;;;;;1.90;99.90;;;;;;6243182;23;19906;-86
2023/03/04 03:53:38;;;;;;;;;;;1.80;99.90;;;;;;6242760;23;19899;-85
2023/03/04 03:56:04;;;;;;;;;;;1.80;99.90;;;;;;6243249;23;19978;-85
2023/03/04 03:58:29;;;;;;;;;;;1.70;99.90;;;;;;6243212;23;19906;-85
2023/03/04 04:00:55;;;;;;;;;;;1.60;99.90;;;;;;6243035;23;19907;-85
2023/03/04 04:03:20;;;;;;;;;;;1.60;99.90;;;;;;6242755;23;20387;-85
2023/03/04 04:05:46;;;;;;;;;;;1.50;99.90;;;;;;6242815;23;19919;-85
2023/03/04 04:08:15;;;;;;;;;;;1.50;99.90;;;;;;6242864;23;19900;-86
2023/03/04 04:10:41;;;;;;;;;;;1.50;99.90;;;;;;6242670;23;19900;-85
2023/03/04 04:13:07;;;;;;;;;;;1.40;99.90;;;;;;6243779;23;20037;-85
2023/03/04 04:15:33;;;;;;;;;;;1.40;99.90;;;;;;6243084;23;19906;-86
2023/03/04 04:17:58;;;;;;;;;;;1.40;99.90;;;;;;6215538;23;19952;-86
2023/03/04 04:20:24;;;;;;;;;;;2.30;99.90;;;;;;6242725;23;19906;-86
2023/03/04 04:22:49;;;;;;;;;;;1.50;99.90;;;;;;6242762;23;19900;-85
2023/03/04 04:25:15;;;;;;;;;;;1.50;99.90;;;;;;6242247;23;19919;-86
2023/03/04 04:27:40;;;;;;;;;;;1.50;99.90;;;;;;6242814;23;20236;-85
2023/03/04 04:30:06;;;;;;;;;;;1.40;99.90;;;;;;6243234;23;19899;-86
2023/03/04 04:32:31;;;;;;;;;;;1.30;99.90;;;;;;6241474;23;19899;-86
2023/03/04 04:34:57;;;;;;;;;;;1.30;99.90;;;;;;6214056;23;19899;-86
2023/03/04 04:37:22;;;;;;;;;;;1.30;99.90;;;;;;6213095;23;19899;-86
2023/03/04 04:39:48;;;;;;;;;;;1.30;99.90;;;;;;6241444;23;19931;-86
2023/03/04 04:42:13;;;;;;;;;;;1.30;99.90;;;;;;6238716;23;20390;-86
2023/03/04 04:44:39;;;;;;;;;;;1.30;99.90;;;;;;6240222;23;20222;-85
2023/03/04 04:47:05;;;;;;;;;;;3.20;99.90;;;;;;6243547;23;19982;-86
2023/03/04 04:49:31;;;;;;;;;;;1.30;99.90;;;;;;6215667;23;19906;-86
2023/03/04 04:51:57;;;;;;;;;;;1.30;99.90;;;;;;6242415;23;19931;-85
2023/03/04 04:54:23;;;;;;;;;;;1.20;99.90;;;;;;6242261;23;19899;-86
2023/03/04 04:56:49;;;;;;;;;;;1.20;99.90;;;;;;6215685;23;19899;-85
2023/03/04 04:59:14;;;;;;;;;;;1.30;99.90;;;;;;6242354;23;20082;-85
2023/03/04 05:01:40;;;;;;;;;;;2.00;99.90;;;;;;6242848;23;19899;-85
2023/03/04 05:04:05;;;;;;;;;;;1.40;99.90;;;;;;6243219;23;19908;-85
2023/03/04 05:06:31;;;;;;;;;;;1.10;99.90;;;;;;6242293;23;19986;-84
2023/03/04 05:08:57;;;;;;;;;;;1.10;99.90;;;;;;6215429;23;19921;-87
2023/03/04 05:11:22;;;;;;;;;;;1.10;99.90;;;;;;6242194;23;19903;-86
2023/03/04 05:13:48;;;;;;;;;;;1.00;99.90;;;;;;6242199;23;19900;-86
2023/03/04 05:16:14;;;;;;;;;;;1.00;99.90;;;;;;6242159;23;19907;-86
2023/03/04 05:18:40;;;;;;;;;;;1.00;99.90;;;;;;6240903;23;19912;-86
2023/03/04 05:21:06;;;;;;;;;;;1.10;99.90;;;;;;6211688;23;19947;-89
2023/03/04 05:23:33;;;;;;;;;;;0.70;99.90;;;;;;6212150;23;19903;-84
2023/03/04 05:25:58;;;;;;;;;;;1.20;99.90;;;;;;6237353;23;19900;-85
2023/03/04 05:28:24;;;;;;;;;;;0.90;99.90;;;;;;6237333;23;19945;-84
2023/03/04 05:30:49;;;;;;;;;;;2.10;99.90;;;;;;6236739;23;20236;-84
2023/03/04 05:33:16;;;;;;;;;;;1.00;99.90;;;;;;6237851;23;19946;-84
2023/03/04 05:35:42;;;;;;;;;;;1.00;99.90;;;;;;6240337;23;20328;-85
2023/03/04 05:38:09;;;;;;;;;;;1.00;99.90;;;;;;6237937;23;19907;-86
2023/03/04 05:40:34;;;;;;;;;;;3.30;99.90;;;;;;6210352;23;19899;-85
2023/03/04 05:43:00;;;;;;;;;;;1.00;99.90;;;;;;6237348;23;20296;-86
2023/03/04 05:45:26;;;;;;;;;;;2.50;99.90;;;;;;6237486;23;19911;-85
2023/03/04 05:47:52;;;;;;;;;;;1.00;99.90;;;;;;6239890;23;19905;-86
2023/03/04 05:50:18;;;;;;;;;;;1.00;99.90;;;;;;6238900;23;20390;-86
2023/03/04 05:52:43;;;;;;;;;;;1.10;99.90;;;;;;6237552;23;19904;-86
2023/03/04 05:55:09;;;;;;;;;;;1.10;99.90;;;;;;6242956;23;19982;-86
2023/03/04 05:57:34;;;;;;;;;;;1.20;99.90;;;;;;6241890;23;19903;-86
2023/03/04 06:00:00;;;;;;;;;;;1.00;99.90;;;;;;6214795;23;19899;-87
2023/03/04 06:02:25;;;;;;;;;;;1.10;99.90;;;;;;6241640;23;19899;-85
2023/03/04 06:04:51;;;;;;;;;;;1.10;99.90;;;;;;6241421;23;20236;-85
2023/03/04 06:07:16;;;;;;;;;;;1.10;99.90;;;;;;6241702;23;19903;-86
2023/03/04 06:09:44;;;;;;;;;;;1.30;99.90;;;;;;6242806;23;19903;-86
2023/03/04 06:12:10;;;;;;;;;;;1.10;99.90;;;;;;6242208;23;20379;-86
2023/03/04 06:14:35;;;;;;;;;;;1.20;99.90;;;;;;6241452;23;19903;-84
2023/03/04 06:17:01;;;;;;;;;;;1.30;99.90;;;;;;6241387;23;20316;-85
2023/03/04 06:19:26;;;;;;;;;;;1.30;99.90;;;;;;6241288;23;19908;-86
2023/03/04 06:21:52;;;;;;;;;;;1.30;99.90;;;;;;6241301;23;19931;-83
2023/03/04 06:24:19;;;;;;;;;;;2.20;99.90;;;;;;6241606;23;19922;-87
2023/03/04 06:26:44;;;;;;;;;;;1.30;99.90;;;;;;6241788;23;20056;-88
2023/03/04 06:29:10;;;;;;;;;;;3.30;99.90;;;;;;6242533;23;19965;-86
2023/03/04 06:31:35;;;;;;;;;;;1.70;99.90;;;;;;6240957;23;19910;-84
2023/03/04 06:34:01;;;;;;;;;;;1.40;99.90;;;;;;6241088;23;19907;-85
2023/03/04 06:36:26;;;;;;;;;;;1.30;99.90;;;;;;6241709;23;19900;-84
2023/03/04 06:38:52;;;;;;;;;;;1.10;99.90;;;;;;6241574;23;19914;-84
2023/03/04 06:41:17;;;;;;;;;;;1.20;99.90;;;;;;6242908;23;19900;-84
2023/03/04 06:43:43;;;;;;;;;;;1.20;99.90;;;;;;6243631;23;20267;-84
2023/03/04 06:46:08;;;;;;;;;;;0.90;99.90;;;;;;6241422;23;19899;-86
2023/03/04 06:48:34;;;;;;;;;;;1.30;99.90;;;;;;6241646;23;20150;-84
2023/03/04 06:51:09;;;;;;;;;;;1.30;99.90;;;;;;6241439;23;20236;-85
2023/03/04 06:53:35;;;;;;;;;;;1.30;99.90;;;;;;6239992;23;19914;-83
2023/03/04 06:56:01;;;;;;;;;;;1.00;99.90;;;;;;6214184;23;19900;-84
2023/03/04 06:58:26;;;;;;;;;;;0.70;99.90;;;;;;6241463;23;20382;-84
2023/03/04 07:00:52;;;;;;;;;;;0.90;99.90;;;;;;6240367;23;19900;-83
2023/03/04 07:03:17;;;;;;;;;;;1.90;99.90;;;;;;6241144;23;19900;-83
2023/03/04 07:05:43;;;;;;;;;;;1.00;99.90;;;;;;6241419;23;20401;-83
2023/03/04 07:08:08;;;;;;;;;;;0.90;99.90;;;;;;6240724;23;20574;-84
2023/03/04 07:10:34;;;;;;;;;;;1.00;99.90;;;;;;6241157;23;19904;-84
2023/03/04 07:13:00;;;;;;;;;;;1.00;99.90;;;;;;6241426;23;19899;-84
2023/03/04 07:15:25;;;;;;;;;;;1.00;99.90;;;;;;6207684;23;19916;-85
2023/03/04 07:17:51;;;;;;;;;;;1.00;99.90;;;;;;6211547;23;19900;-84
2023/03/04 07:20:18;;;;;;;;;;;0.90;99.90;;;;;;6239043;23;20280;-83
2023/03/04 07:22:44;;;;;;;;;;;1.00;99.90;;;;;;6241375;23;19899;-83
2023/03/04 07:25:09;;;;;;;;;;;1.00;99.90;;;;;;6242159;23;19914;-84
2023/03/04 07:27:37;;;;;;;;;;;1.00;99.90;;;;;;6242897;23;19983;-85
2023/03/04 07:30:03;;;;;;;;;;;1.00;99.90;;;;;;6242169;23;20347;-85
2023/03/04 07:32:29;;;;;;;;;;;1.00;99.90;;;;;;6243100;23;19900;-85
2023/03/04 07:34:54;;;;;;;;;;;1.00;99.90;;;;;;6242262;23;19911;-84
2023/03/04 07:37:20;;;;;;;;;;;1.10;99.90;;;;;;6242621;23;20271;-83
2023/03/04 07:39:46;;;;;;;;;;;1.20;99.90;;;;;;6244024;23;19903;-84
2023/03/04 07:42:11;;;;;;;;;;;1.30;99.90;;;;;;6244021;23;20328;-83
2023/03/04 07:44:37;;;;;;;;;;;1.30;99.90;;;;;;6241966;23;19907;-84
2023/03/04 07:47:02;;;;;;;;;;;1.30;99.90;;;;;;6241520;23;19974;-83
2023/03/04 07:49:28;;;;;;;;;;;1.20;99.90;;;;;;6241545;23;19903;-85
2023/03/04 07:51:53;;;;;;;;;;;1.20;99.90;;;;;;6241745;23;20221;-85
2023/03/04 07:54:19;;;;;;;;;;;1.30;99.90;;;;;;6241173;23;19911;-84
2023/03/04 07:56:44;;;;;;;;;;;1.30;99.90;;;;;;6215556;23;20273;-84
2023/03/04 07:59:10;;;;;;;;;;;1.40;99.90;;;;;;6241662;23;20635;-84
2023/03/04 08:01:36;;;;;;;;;;;1.40;99.90;;;;;;6214052;23;20466;-84
2023/03/04 08:04:03;;;;;;;;;;;1.50;99.90;;;;;;6241235;23;19990;-85
2023/03/04 08:06:29;;;;;;;;;;;1.50;99.90;;;;;;6241577;23;19982;-85
2023/03/04 08:08:56;;;;;;;;;;;1.60;99.90;;;;;;6214753;23;19927;-84
2023/03/04 08:11:22;;;;;;;;;;;1.60;99.90;;;;;;6240608;23;20316;-83
2023/03/04 08:13:48;;;;;;;;;;;1.80;99.90;;;;;;6241564;23;19953;-83
2023/03/04 08:16:14;;;;;;;;;;;1.80;99.90;;;;;;6215521;23;19989;-84
2023/03/04 08:18:41;;;;;;;;;;;1.90;99.90;;;;;;6241151;23;20288;-86
2023/03/04 08:21:07;;;;;;;;;;;3.30;99.90;;;;;;6237503;23;19903;-85
2023/03/04 08:23:33;;;;;;;;;;;2.10;99.90;;;;;;6237598;23;19904;-84
2023/03/04 08:25:58;;;;;;;;;;;2.20;99.90;;;;;;6215006;23;19900;-85
2023/03/04 08:28:26;;;;;;;;;;;2.20;99.90;;;;;;6241645;23;20244;-85
2023/03/04 08:30:52;;;;;;;;;;;2.30;99.90;;;;;;6214632;23;19899;-85
2023/03/04 08:33:18;;;;;;;;;;;2.40;99.90;;;;;;6241388;23;19899;-85
2023/03/04 08:35:43;;;;;;;;;;;2.40;99.90;;;;;;6242450;23;19922;-84
2023/03/04 08:38:09;;;;;;;;;;;2.50;99.90;;;;;;6241746;23;20213;-84
2023/03/04 08:40:35;;;;;;;;;;;2.60;99.90;;;;;;6242263;23;20453;-84
2023/03/04 08:43:01;;;;;;;;;;;2.60;99.90;;;;;;6241964;23;20492;-83
2023/03/04 08:45:34;;;;;;;;;;;1.80;99.90;;;;;;6240924;23;19958;-88
2023/03/04 08:47:59;;;;;;;;;;;2.80;99.90;;;;;;6214476;23;19950;-83
2023/03/04 08:50:26;;;;;;;;;;;2.90;99.90;;;;;;6242229;23;19907;-84
2023/03/04 08:52:52;;;;;;;;;;;3.00;99.90;;;;;;6215089;23;20387;-85
2023/03/04 08:55:19;;;;;;;;;;;3.20;99.90;;;;;;6241589;23;20338;-88
2023/03/04 08:57:48;;;;;;;;;;;3.30;99.90;;;;;;6215938;23;19900;-84
2023/03/04 09:00:32;;;;;;;;;;;4.80;99.90;;;;;;6179263;23;19919;-85
2023/03/04 09:03:06;;;;;;;;;;;3.50;99.90;;;;;;6148390;23;19901;-86
2023/03/04 09:05:41;;;;;;;;;;;3.60;99.90;;;;;;6148844;23;19908;-88
2023/03/04 09:08:10;;;;;;;;;;;3.70;99.90;;;;;;6147791;23;19957;-88
2023/03/04 09:10:39;;;;;;;;;;;4.60;99.90;;;;;;6148006;23;20077;-87
2023/03/04 09:13:05;;;;;;;;;;;3.80;99.90;;;;;;6148844;23;19908;-88
2023/03/04 09:15:34;;;;;;;;;;;3.90;99.90;;;;;;6146422;23;19905;-86
2023/03/04 09:18:08;;;;;;;;;;;4.10;99.90;;;;;;6148851;23;19904;-85
2023/03/04 09:20:34;;;;;;;;;;;4.10;99.90;;;;;;6145244;23;19908;-86
2023/03/04 09:23:03;;;;;;;;;;;4.10;99.90;;;;;;6146598;23;19975;-85
2023/03/04 09:25:29;;;;;;;;;;;4.00;99.90;;;;;;6139815;23;19999;-86
2023/03/04 09:28:04;;;;;;;;;;;4.10;99.90;;;;;;6120580;23;19943;-85
2023/03/04 09:30:30;;;;;;;;;;;4.20;99.90;;;;;;6145750;23;19912;-86
2023/03/04 09:33:08;;;;;;;;;;;6.70;99.90;;;;;;6148110;23;20277;-85
2023/03/04 09:35:54;;;;;;;;;;;6.40;99.90;;;;;;6176147;23;19970;-85
2023/03/04 09:38:23;;;;;;;;;;;4.80;99.90;;;;;;6224655;23;19981;-86
2023/03/04 09:40:53;;;;;;;;;;;4.80;99.90;;;;;;6239342;23;19911;-85
2023/03/04 09:43:21;;;;;;;;;;;4.80;99.90;;;;;;6213153;23;19899;-84
2023/03/04 09:45:59;;;;;;;;;;;4.90;99.90;;;;;;6242104;23;19911;-85
2023/03/04 09:48:27;;;;;;;;;;;2.80;99.90;;;;;;6241442;23;19900;-88
2023/03/04 09:51:05;;;;;;;;;;;5.10;99.90;;;;;;6241247;23;19908;-84
2023/03/04 09:53:34;;;;;;;;;;;5.50;99.90;;;;;;6241394;23;19978;-83
2023/03/04 09:56:10;;;;;;;;;;;5.10;99.90;;;;;;6240182;23;19899;-83
2023/03/04 09:58:41;;;;;;;;;;;5.10;99.90;;;;;;6214091;23;19982;-84
2023/03/04 10:01:10;;;;;;;;;;;5.10;99.90;;;;;;6241348;23;19904;-84
2023/03/04 10:03:36;;;;;;;;;;;5.90;99.90;;;;;;6241248;23;19957;-84
2023/03/04 10:06:05;;;;;;;;;;;4.90;99.90;;;;;;6240986;23;19904;-84
2023/03/04 10:08:36;;;;;;;;;;;6.40;99.90;;;;;;6240746;23;20243;-81
2023/03/04 10:11:03;;;;;;;;;;;5.40;99.90;;;;;;6240984;23;19900;-83
2023/03/04 10:13:41;;;;;;;;;;;5.50;99.90;;;;;;6241410;23;19946;-85
2023/03/04 10:16:10;;;;;;;;;;;5.60;99.90;;;;;;6241465;23;20142;-84
2023/03/04 10:18:37;;;;;;;;;;;5.50;99.90;;;;;;6241032;23;20411;-84
2023/03/04 10:21:08;;;;;;;;;;;6.90;99.90;;;;;;6213999;23;19900;-84
2023/03/04 10:23:36;;;;;;;;;;;5.70;99.90;;;;;;6240994;23;19907;-84
2023/03/04 10:26:11;;;;;;;;;;;5.70;99.90;;;;;;6241388;23;19912;-83
2023/03/04 10:28:36;;;;;;;;;;;5.70;99.90;;;;;;6241150;23;19945;-84
2023/03/04 10:31:11;;;;;;;;;;;5.90;99.90;;;;;;6241182;23;19903;-84
2023/03/04 10:33:37;;;;;;;;;;;6.00;99.90;;;;;;6240302;23;20248;-86
2023/03/04 10:36:12;;;;;;;;;;;7.30;99.90;;;;;;6213778;23;19899;-85
2023/03/04 10:38:40;;;;;;;;;;;5.90;99.90;;;;;;6237193;23;20306;-85
2023/03/04 10:41:13;;;;;;;;;;;6.00;99.90;;;;;;6212789;23;19903;-84
2023/03/04 10:43:39;;;;;;;;;;;6.10;99.90;;;;;;6239446;23;19973;-85
2023/03/04 10:46:04;;;;;;;;;;;6.20;99.90;;;;;;6239977;23;20335;-85
2023/03/04 10:48:30;;;;;;;;;;;6.20;99.90;;;;;;6239906;23;19906;-86
2023/03/04 10:51:16;;;;;;;;;;;6.40;99.90;;;;;;6213128;23;19903;-85
2023/03/04 10:53:42;;;;;;;;;;;6.50;99.90;;;;;;6212892;23;19969;-88
2023/03/04 10:56:26;;;;;;;;;;;6.30;99.90;;;;;;6239299;23;20648;-87
2023/03/04 10:58:51;;;;;;;;;;;6.30;99.90;;;;;;6239007;23;19959;-89
2023/03/04 11:01:24;;;;;;;;;;;7.50;99.90;;;;;;6213811;23;19903;-86
2023/03/04 11:03:50;;;;;;;;;;;6.50;99.90;;;;;;6239321;23;19911;-88
2023/03/04 11:06:20;;;;;;;;;;;6.90;99.90;;;;;;6240796;23;19903;-86
2023/03/04 11:08:53;;;;;;;;;;;6.70;99.90;;;;;;6240695;23;20221;-86
2023/03/04 11:11:21;;;;;;;;;;;6.60;99.90;;;;;;6239705;23;19903;-85
2023/03/04 11:13:58;;;;;;;;;;;8.80;99.90;;;;;;6240547;23;19907;-84
2023/03/04 11:16:29;;;;;;;;;;;6.80;99.90;;;;;;6239355;23;19899;-88
2023/03/04 11:19:02;;;;;;;;;;;6.70;99.90;;;;;;6239090;23;19908;-85
2023/03/04 11:21:30;;;;;;;;;;;6.70;99.90;;;;;;6240712;23;19974;-87
2023/03/04 11:23:57;;;;;;;;;;;7.40;99.90;;;;;;6239625;23;19911;-87
2023/03/04 11:26:27;;;;;;;;;;;6.90;99.90;;;;;;6212335;23;20332;-87
2023/03/04 11:28:58;;;;;;;;;;;7.50;99.90;;;;;;6239512;23;20025;-85
2023/03/04 11:31:31;;;;;;;;;;;6.10;99.90;;;;;;6239375;23;20317;-87
2023/03/04 11:34:14;;;;;;;;;;;6.90;99.90;;;;;;6240596;23;19926;-85
2023/03/04 11:36:42;;;;;;;;;;;7.10;99.90;;;;;;6240272;23;19927;-86
2023/03/04 11:39:25;;;;;;;;;;;7.10;99.90;;;;;;6213774;23;19903;-86
2023/03/04 11:41:55;;;;;;;;;;;7.00;99.90;;;;;;6240515;23;19921;-84
2023/03/04 11:44:21;;;;;;;;;;;6.80;99.90;;;;;;6240258;23;19908;-85
2023/03/04 11:46:46;;;;;;;;;;;7.90;99.90;;;;;;6241449;23;19911;-86
2023/03/04 11:49:15;;;;;;;;;;;8.40;99.90;;;;;;6213307;23;19922;-85
2023/03/04 11:51:41;;;;;;;;;;;6.90;99.90;;;;;;6212251;23;19899;-84
2023/03/04 11:54:25;;;;;;;;;;;7.80;99.90;;;;;;6239414;23;19906;-85
2023/03/04 11:56:53;;;;;;;;;;;7.10;99.90;;;;;;6239126;23;19989;-85
2023/03/04 11:59:37;;;;;;;;;;;7.50;99.90;;;;;;6238369;23;19904;-84
2023/03/04 12:02:03;;;;;;;;;;;7.00;99.90;;;;;;6239300;23;19899;-86
2023/03/04 12:04:37;;;;;;;;;;;7.40;99.90;;;;;;6239418;23;19914;-84
2023/03/04 12:07:06;;;;;;;;;;;7.00;99.90;;;;;;6239526;23;19903;-85
2023/03/04 12:09:38;;;;;;;;;;;7.10;99.90;;;;;;6244754;23;19899;-91
2023/03/04 12:12:14;;;;;;;;;;;7.10;99.90;;;;;;6243608;23;19900;-90
2023/03/04 12:14:47;;;;;;;;;;;8.80;99.90;;;;;;6216010;23;19900;-90
2023/03/04 12:17:32;;;;;;;;;;;6.50;99.90;;;;;;6243264;23;19899;-88
2023/03/04 12:20:15;;;;;;;;;;;7.20;99.90;;;;;;6242375;23;19930;-89
2023/03/04 12:22:44;;;;;;;;;;;7.20;99.90;;;;;;6214273;23;19910;-91
2023/03/04 12:25:33;;;;;;;;;;;7.30;99.90;;;;;;6241939;23;19908;-88
2023/03/04 12:28:09;;;;;;;;;;;7.40;99.90;;;;;;6172237;23;19965;-92
2023/03/04 12:31:00;;;;;;;;;;;7.30;99.90;;;;;;6242711;23;19900;-91
2023/03/04 12:33:28;;;;;;;;;;;7.30;99.90;;;;;;6235857;23;19904;-90
2023/03/04 12:36:03;;;;;;;;;;;7.20;99.90;;;;;;6245612;23;19899;-90
2023/03/04 12:38:37;;;;;;;;;;;7.30;99.90;;;;;;6240342;23;20050;-86
2023/03/04 12:41:21;;;;;;;;;;;7.20;99.90;;;;;;6241077;23;19903;-84
2023/03/04 12:44:00;;;;;;;;;;;7.20;99.90;;;;;;6214958;23;19903;-85
2023/03/04 12:46:25;;;;;;;;;;;7.10;99.90;;;;;;6241124;23;19962;-85
2023/03/04 12:49:03;;;;;;;;;;;8.00;99.90;;;;;;6240733;23;19903;-85
2023/03/04 12:51:34;;;;;;;;;;;7.40;99.90;;;;;;6213572;23;19931;-85
2023/03/04 12:54:00;;;;;;;;;;;7.40;99.90;;;;;;6240916;23;19957;-85
2023/03/04 12:56:28;;;;;;;;;;;8.50;99.90;;;;;;6240372;23;19907;-88
2023/03/04 12:58:55;;;;;;;;;;;6.30;99.90;;;;;;6239888;23;20029;-85
2023/03/04 13:01:24;;;;;;;;;;;8.00;99.90;;;;;;6240110;23;19930;-85
2023/03/04 13:03:57;;;;;;;;;;;7.20;99.90;;;;;;6240657;23;19907;-84
2023/03/04 13:06:25;;;;;;;;;;;7.10;99.90;;;;;;6214807;23;19925;-84
2023/03/04 13:08:57;;;;;;;;;;;7.20;99.90;;;;;;6214950;23;20317;-84
2023/03/04 13:11:26;;;;;;;;;;;7.20;99.90;;;;;;6208298;23;19900;-85
2023/03/04 13:14:17;;;;;;;;;;;7.10;99.90;;;;;;6240712;23;19930;-85
2023/03/04 13:16:46;;;;;;;;;;;7.20;99.90;;;;;;6223655;23;19899;-85
2023/03/04 13:19:31;;;;;;;;;;;7.20;99.90;;;;;;6241186;23;19953;-84
2023/03/04 13:21:56;;;;;;;;;;;7.30;99.90;;;;;;6239392;23;19910;-84
2023/03/04 13:24:40;;;;;;;;;;;8.00;99.90;;;;;;6238786;23;19908;-86
2023/03/04 13:27:28;;;;;;;;;;;7.20;99.90;;;;;;6239841;23;19907;-83
2023/03/04 13:29:53;;;;;;;;;;;7.20;99.90;;;;;;6240274;23;19978;-83
2023/03/04 13:32:35;;;;;;;;;;;6.50;99.90;;;;;;6240741;23;19946;-83
2023/03/04 13:35:01;;;;;;;;;;;7.70;99.90;;;;;;6240103;23;19899;-83
2023/03/04 13:37:31;;;;;;;;;;;7.60;99.90;;;;;;6239447;23;19900;-83
2023/03/04 13:40:16;;;;;;;;;;;7.50;99.90;;;;;;6240327;23;19903;-86
2023/03/04 13:42:42;;;;;;;;;;;7.60;99.90;;;;;;6237820;23;20510;-83
2023/03/04 13:45:43;;;;;;;;;;;7.60;99.90;;;;;;6238797;23;19929;-84
2023/03/04 13:48:23;;;;;;;;;;;7.60;99.90;;;;;;6064465;23;20549;-84
2023/03/04 13:50:49;;;;;;;;;;;7.50;99.90;;;;;;6224209;23;19945;-84
2023/03/04 13:53:22;;;;;;;;;;;7.40;99.90;;;;;;6211545;23;19903;-84
2023/03/04 13:56:08;;;;;;;;;;;7.30;99.90;;;;;;6214467;23;20355;-84
2023/03/04 13:58:34;;;;;;;;;;;8.20;99.90;;;;;;6213869;23;19904;-83
2023/03/04 14:00:59;;;;;;;;;;;7.50;99.90;;;;;;6240237;23;19927;-84
2023/03/04 14:03:28;;;;;;;;;;;8.00;99.90;;;;;;6239990;23;20351;-84
2023/03/04 14:06:11;;;;;;;;;;;6.90;99.90;;;;;;6239933;23;19930;-83
2023/03/04 14:08:37;;;;;;;;;;;7.40;99.90;;;;;;6240804;23;19983;-84
2023/03/04 14:11:02;;;;;;;;;;;7.50;99.90;;;;;;6239909;23;19910;-87
2023/03/04 14:13:28;;;;;;;;;;;8.40;99.90;;;;;;6240572;23;19945;-82
2023/03/04 14:15:58;;;;;;;;;;;8.40;99.90;;;;;;6240907;23;19900;-83
2023/03/04 14:18:23;;;;;;;;;;;7.60;99.90;;;;;;6213207;23;19899;-82
2023/03/04 14:20:50;;;;;;;;;;;8.30;99.90;;;;;;6241529;23;19951;-83
2023/03/04 14:23:24;;;;;;;;;;;7.80;99.90;;;;;;6240258;23;19900;-83
2023/03/04 14:25:49;;;;;;;;;;;7.60;99.90;;;;;;6241144;23;19907;-84
2023/03/04 14:28:17;;;;;;;;;;;7.50;99.90;;;;;;6241159;23;19906;-82
2023/03/04 14:30:50;;;;;;;;;;;8.30;99.90;;;;;;6240613;23;19927;-82
2023/03/04 14:33:17;;;;;;;;;;;6.50;99.90;;;;;;6240446;23;19982;-82
2023/03/04 14:35:47;;;;;;;;;;;7.80;99.90;;;;;;6213628;23;19899;-82
2023/03/04 14:38:22;;;;;;;;;;;7.30;99.90;;;;;;6239208;23;19907;-82